sensor_id;sensor_type;location;lat;lon;timestamp;P1;durP1;ratioP1;P2;durP2;ratioP2
7683;SDS011;3884;48.616;12.872;2023-06-26T00:00:45;10.03;;;9.03;;
7683;SDS011;3884;48.616;12.872;2023-06-26T00:03:13;9.77;;;8.77;;
7683;SDS011;3884;48.616;12.872;2023-06-26T00:05:40;10.30;;;9.30;;
7683;SDS011;3884;48.616;12.872;2023-06-26T00:08:07;9.80;;;8.97;;
7683;SDS011;3884;48.616;12.872;2023-06-26T00:10:34;11.63;;;9.13;;
7683;SDS011;3884;48.616;12.872;2023-06-26T00:13:02;9.77;;;8.77;;
7683;SDS011;3884;48.616;12.872;2023-06-26T00:15:29;10.47;;;9.00;;
7683;SDS011;3884;48.616;12.872;2023-06-26T00:17:56;10.80;;;9.13;;
7683;SDS011;3884;48.616;12.872;2023-06-26T00:20:23;9.87;;;8.97;;
7683;SDS011;3884;48.616;12.872;2023-06-26T00:22:51;9.50;;;8.60;;
7683;SDS011;3884;48.616;12.872;2023-06-26T00:25:18;11.47;;;10.37;;
7683;SDS011;3884;48.616;12.872;2023-06-26T00:27:46;10.80;;;9.70;;
7683;SDS011;3884;48.616;12.872;2023-06-26T00:30:14;10.27;;;9.27;;
7683;SDS011;3884;48.616;12.872;2023-06-26T00:32:41;10.60;;;9.53;;
7683;SDS011;3884;48.616;12.872;2023-06-26T00:35:07;10.43;;;9.43;;
7683;SDS011;3884;48.616;12.872;2023-06-26T00:37:35;10.90;;;9.80;;
7683;SDS011;3884;48.616;12.872;2023-06-26T00:40:02;11.87;;;9.03;;
7683;SDS011;3884;48.616;12.872;2023-06-26T00:42:31;10.47;;;9.47;;
7683;SDS011;3884;48.616;12.872;2023-06-26T00:44:58;10.87;;;9.80;;
7683;SDS011;3884;48.616;12.872;2023-06-26T00:47:26;10.87;;;9.77;;
7683;SDS011;3884;48.616;12.872;2023-06-26T00:49:54;11.10;;;9.67;;
7683;SDS011;3884;48.616;12.872;2023-06-26T00:52:22;11.43;;;10.23;;
7683;SDS011;3884;48.616;12.872;2023-06-26T00:54:50;11.40;;;10.30;;
7683;SDS011;3884;48.616;12.872;2023-06-26T00:57:17;12.60;;;10.77;;
7683;SDS011;3884;48.616;12.872;2023-06-26T00:59:44;11.93;;;10.83;;
7683;SDS011;3884;48.616;12.872;2023-06-26T01:02:11;11.80;;;10.57;;
7683;SDS011;3884;48.616;12.872;2023-06-26T01:04:39;10.97;;;9.97;;
7683;SDS011;3884;48.616;12.872;2023-06-26T01:07:12;11.50;;;10.30;;
7683;SDS011;3884;48.616;12.872;2023-06-26T01:09:40;12.03;;;10.77;;
7683;SDS011;3884;48.616;12.872;2023-06-26T01:12:08;12.20;;;10.93;;
7683;SDS011;3884;48.616;12.872;2023-06-26T01:14:35;11.87;;;10.30;;
7683;SDS011;3884;48.616;12.872;2023-06-26T01:17:02;11.13;;;10.03;;
7683;SDS011;3884;48.616;12.872;2023-06-26T01:19:30;11.50;;;10.40;;
7683;SDS011;3884;48.616;12.872;2023-06-26T01:22:02;11.03;;;9.93;;
7683;SDS011;3884;48.616;12.872;2023-06-26T01:24:42;11.00;;;9.90;;
7683;SDS011;3884;48.616;12.872;2023-06-26T01:27:20;11.80;;;10.60;;
7683;SDS011;3884;48.616;12.872;2023-06-26T01:29:49;11.20;;;10.10;;
7683;SDS011;3884;48.616;12.872;2023-06-26T01:32:17;12.90;;;10.97;;
7683;SDS011;3884;48.616;12.872;2023-06-26T01:34:45;11.33;;;10.23;;
7683;SDS011;3884;48.616;12.872;2023-06-26T01:37:12;12.23;;;10.90;;
7683;SDS011;3884;48.616;12.872;2023-06-26T01:39:38;10.93;;;9.83;;
7683;SDS011;3884;48.616;12.872;2023-06-26T01:42:05;11.67;;;10.43;;
7683;SDS011;3884;48.616;12.872;2023-06-26T01:44:35;11.70;;;10.43;;
7683;SDS011;3884;48.616;12.872;2023-06-26T01:47:08;13.43;;;11.23;;
7683;SDS011;3884;48.616;12.872;2023-06-26T01:49:42;11.83;;;10.63;;
7683;SDS011;3884;48.616;12.872;2023-06-26T01:52:14;12.10;;;10.97;;
7683;SDS011;3884;48.616;12.872;2023-06-26T01:54:50;11.93;;;10.73;;
7683;SDS011;3884;48.616;12.872;2023-06-26T01:57:21;12.17;;;10.20;;
7683;SDS011;3884;48.616;12.872;2023-06-26T01:59:52;12.00;;;10.50;;
7683;SDS011;3884;48.616;12.872;2023-06-26T02:02:20;11.73;;;10.17;;
7683;SDS011;3884;48.616;12.872;2023-06-26T02:04:49;10.77;;;9.67;;
7683;SDS011;3884;48.616;12.872;2023-06-26T02:07:16;11.33;;;10.23;;
7683;SDS011;3884;48.616;12.872;2023-06-26T02:09:43;11.60;;;9.97;;
7683;SDS011;3884;48.616;12.872;2023-06-26T02:12:10;13.60;;;10.97;;
7683;SDS011;3884;48.616;12.872;2023-06-26T02:14:36;11.73;;;10.47;;
7683;SDS011;3884;48.616;12.872;2023-06-26T02:17:05;12.57;;;11.20;;
7683;SDS011;3884;48.616;12.872;2023-06-26T02:19:34;12.77;;;10.97;;
7683;SDS011;3884;48.616;12.872;2023-06-26T02:22:00;13.47;;;10.77;;
7683;SDS011;3884;48.616;12.872;2023-06-26T02:24:27;12.00;;;10.70;;
7683;SDS011;3884;48.616;12.872;2023-06-26T02:26:57;12.57;;;11.10;;
7683;SDS011;3884;48.616;12.872;2023-06-26T02:29:23;12.20;;;11.03;;
7683;SDS011;3884;48.616;12.872;2023-06-26T02:31:50;15.73;;;12.33;;
7683;SDS011;3884;48.616;12.872;2023-06-26T02:34:18;14.27;;;11.10;;
7683;SDS011;3884;48.616;12.872;2023-06-26T02:36:45;14.07;;;10.13;;
7683;SDS011;3884;48.616;12.872;2023-06-26T02:39:13;12.10;;;10.90;;
7683;SDS011;3884;48.616;12.872;2023-06-26T02:41:40;11.50;;;10.30;;
7683;SDS011;3884;48.616;12.872;2023-06-26T02:44:08;12.27;;;11.03;;
7683;SDS011;3884;48.616;12.872;2023-06-26T02:46:36;11.40;;;10.20;;
7683;SDS011;3884;48.616;12.872;2023-06-26T02:49:03;11.20;;;10.00;;
7683;SDS011;3884;48.616;12.872;2023-06-26T02:51:32;13.83;;;10.40;;
7683;SDS011;3884;48.616;12.872;2023-06-26T02:54:05;11.47;;;10.33;;
7683;SDS011;3884;48.616;12.872;2023-06-26T02:56:31;11.70;;;10.40;;
7683;SDS011;3884;48.616;12.872;2023-06-26T02:58:59;10.27;;;9.30;;
7683;SDS011;3884;48.616;12.872;2023-06-26T03:01:27;12.77;;;10.37;;
7683;SDS011;3884;48.616;12.872;2023-06-26T03:03:55;11.97;;;10.77;;
7683;SDS011;3884;48.616;12.872;2023-06-26T03:06:23;12.13;;;10.40;;
7683;SDS011;3884;48.616;12.872;2023-06-26T03:08:51;15.30;;;11.07;;
7683;SDS011;3884;48.616;12.872;2023-06-26T03:11:19;10.67;;;9.57;;
7683;SDS011;3884;48.616;12.872;2023-06-26T03:13:46;10.87;;;9.67;;
7683;SDS011;3884;48.616;12.872;2023-06-26T03:16:13;12.80;;;10.67;;
7683;SDS011;3884;48.616;12.872;2023-06-26T03:18:40;11.67;;;9.77;;
7683;SDS011;3884;48.616;12.872;2023-06-26T03:21:06;11.90;;;10.10;;
7683;SDS011;3884;48.616;12.872;2023-06-26T03:23:34;12.57;;;9.63;;
7683;SDS011;3884;48.616;12.872;2023-06-26T03:26:02;10.73;;;9.63;;
7683;SDS011;3884;48.616;12.872;2023-06-26T03:28:31;11.43;;;9.27;;
7683;SDS011;3884;48.616;12.872;2023-06-26T03:30:58;13.17;;;10.03;;
7683;SDS011;3884;48.616;12.872;2023-06-26T03:33:25;12.60;;;9.83;;
7683;SDS011;3884;48.616;12.872;2023-06-26T03:35:53;10.80;;;9.67;;
7683;SDS011;3884;48.616;12.872;2023-06-26T03:38:21;10.30;;;9.27;;
7683;SDS011;3884;48.616;12.872;2023-06-26T03:40:51;11.27;;;10.20;;
7683;SDS011;3884;48.616;12.872;2023-06-26T03:43:19;10.90;;;9.70;;
7683;SDS011;3884;48.616;12.872;2023-06-26T03:46:04;10.47;;;9.17;;
7683;SDS011;3884;48.616;12.872;2023-06-26T03:48:31;11.90;;;9.57;;
7683;SDS011;3884;48.616;12.872;2023-06-26T03:50:58;11.50;;;10.33;;
7683;SDS011;3884;48.616;12.872;2023-06-26T03:53:26;11.60;;;10.07;;
7683;SDS011;3884;48.616;12.872;2023-06-26T03:55:54;13.70;;;9.97;;
7683;SDS011;3884;48.616;12.872;2023-06-26T03:58:23;11.13;;;9.70;;
7683;SDS011;3884;48.616;12.872;2023-06-26T04:00:50;13.80;;;10.07;;
7683;SDS011;3884;48.616;12.872;2023-06-26T04:03:18;13.10;;;10.00;;
7683;SDS011;3884;48.616;12.872;2023-06-26T04:05:45;16.33;;;9.83;;
7683;SDS011;3884;48.616;12.872;2023-06-26T04:08:12;13.27;;;9.90;;
7683;SDS011;3884;48.616;12.872;2023-06-26T04:10:39;11.17;;;10.07;;
7683;SDS011;3884;48.616;12.872;2023-06-26T04:13:06;11.90;;;10.70;;
7683;SDS011;3884;48.616;12.872;2023-06-26T04:15:34;13.83;;;10.43;;
7683;SDS011;3884;48.616;12.872;2023-06-26T04:18:00;13.37;;;10.90;;
7683;SDS011;3884;48.616;12.872;2023-06-26T04:20:28;14.97;;;11.93;;
7683;SDS011;3884;48.616;12.872;2023-06-26T04:22:54;12.13;;;10.83;;
7683;SDS011;3884;48.616;12.872;2023-06-26T04:25:21;12.90;;;11.53;;
7683;SDS011;3884;48.616;12.872;2023-06-26T04:27:48;13.90;;;11.63;;
7683;SDS011;3884;48.616;12.872;2023-06-26T04:30:15;14.60;;;11.83;;
7683;SDS011;3884;48.616;12.872;2023-06-26T04:32:43;14.67;;;11.97;;
7683;SDS011;3884;48.616;12.872;2023-06-26T04:35:10;12.90;;;11.57;;
7683;SDS011;3884;48.616;12.872;2023-06-26T04:37:37;13.00;;;11.60;;
7683;SDS011;3884;48.616;12.872;2023-06-26T04:40:04;13.37;;;11.93;;
7683;SDS011;3884;48.616;12.872;2023-06-26T04:42:32;14.47;;;12.47;;
7683;SDS011;3884;48.616;12.872;2023-06-26T04:44:59;15.20;;;12.13;;
7683;SDS011;3884;48.616;12.872;2023-06-26T04:47:27;12.53;;;11.23;;
7683;SDS011;3884;48.616;12.872;2023-06-26T04:49:55;12.57;;;11.27;;
7683;SDS011;3884;48.616;12.872;2023-06-26T04:52:22;13.43;;;12.03;;
7683;SDS011;3884;48.616;12.872;2023-06-26T04:54:49;12.80;;;11.60;;
7683;SDS011;3884;48.616;12.872;2023-06-26T04:57:16;14.60;;;11.67;;
7683;SDS011;3884;48.616;12.872;2023-06-26T04:59:44;13.83;;;11.73;;
7683;SDS011;3884;48.616;12.872;2023-06-26T05:02:11;15.13;;;11.80;;
7683;SDS011;3884;48.616;12.872;2023-06-26T05:04:39;12.70;;;11.40;;
7683;SDS011;3884;48.616;12.872;2023-06-26T05:07:08;15.33;;;12.23;;
7683;SDS011;3884;48.616;12.872;2023-06-26T05:09:35;16.33;;;12.30;;
7683;SDS011;3884;48.616;12.872;2023-06-26T05:12:02;12.97;;;11.63;;
7683;SDS011;3884;48.616;12.872;2023-06-26T05:14:29;13.30;;;12.00;;
7683;SDS011;3884;48.616;12.872;2023-06-26T05:16:56;13.33;;;12.07;;
7683;SDS011;3884;48.616;12.872;2023-06-26T05:19:23;13.23;;;12.00;;
7683;SDS011;3884;48.616;12.872;2023-06-26T05:21:49;14.40;;;12.47;;
7683;SDS011;3884;48.616;12.872;2023-06-26T05:24:18;13.10;;;11.80;;
7683;SDS011;3884;48.616;12.872;2023-06-26T05:26:46;12.10;;;10.13;;
7683;SDS011;3884;48.616;12.872;2023-06-26T05:29:13;12.70;;;11.40;;
7683;SDS011;3884;48.616;12.872;2023-06-26T05:31:41;13.77;;;12.37;;
7683;SDS011;3884;48.616;12.872;2023-06-26T05:34:10;15.10;;;13.10;;
7683;SDS011;3884;48.616;12.872;2023-06-26T05:36:39;14.03;;;12.63;;
7683;SDS011;3884;48.616;12.872;2023-06-26T05:39:08;14.47;;;12.07;;
7683;SDS011;3884;48.616;12.872;2023-06-26T05:41:37;12.90;;;10.53;;
7683;SDS011;3884;48.616;12.872;2023-06-26T05:44:04;11.27;;;10.07;;
7683;SDS011;3884;48.616;12.872;2023-06-26T05:46:31;11.47;;;10.07;;
7683;SDS011;3884;48.616;12.872;2023-06-26T05:48:58;10.53;;;9.53;;
7683;SDS011;3884;48.616;12.872;2023-06-26T05:51:26;10.70;;;9.40;;
7683;SDS011;3884;48.616;12.872;2023-06-26T05:53:53;11.13;;;10.03;;
7683;SDS011;3884;48.616;12.872;2023-06-26T05:56:20;10.20;;;9.30;;
7683;SDS011;3884;48.616;12.872;2023-06-26T05:58:49;11.10;;;9.00;;
7683;SDS011;3884;48.616;12.872;2023-06-26T06:01:16;10.20;;;9.20;;
7683;SDS011;3884;48.616;12.872;2023-06-26T06:03:44;9.30;;;8.33;;
7683;SDS011;3884;48.616;12.872;2023-06-26T06:06:10;9.33;;;8.43;;
7683;SDS011;3884;48.616;12.872;2023-06-26T06:08:37;11.27;;;8.90;;
7683;SDS011;3884;48.616;12.872;2023-06-26T06:11:04;9.47;;;8.47;;
7683;SDS011;3884;48.616;12.872;2023-06-26T06:13:31;10.20;;;8.60;;
7683;SDS011;3884;48.616;12.872;2023-06-26T06:15:59;9.93;;;8.60;;
7683;SDS011;3884;48.616;12.872;2023-06-26T06:18:26;9.80;;;8.80;;
7683;SDS011;3884;48.616;12.872;2023-06-26T06:20:53;11.03;;;7.87;;
7683;SDS011;3884;48.616;12.872;2023-06-26T06:23:20;11.47;;;8.17;;
7683;SDS011;3884;48.616;12.872;2023-06-26T06:25:47;15.77;;;14.20;;
7683;SDS011;3884;48.616;12.872;2023-06-26T06:28:13;12.80;;;9.60;;
7683;SDS011;3884;48.616;12.872;2023-06-26T06:30:41;10.30;;;8.50;;
7683;SDS011;3884;48.616;12.872;2023-06-26T06:33:09;8.90;;;8.00;;
7683;SDS011;3884;48.616;12.872;2023-06-26T06:35:36;9.77;;;7.27;;
7683;SDS011;3884;48.616;12.872;2023-06-26T06:38:03;8.73;;;7.93;;
7683;SDS011;3884;48.616;12.872;2023-06-26T06:40:29;8.57;;;7.70;;
7683;SDS011;3884;48.616;12.872;2023-06-26T06:42:56;9.47;;;7.63;;
7683;SDS011;3884;48.616;12.872;2023-06-26T06:45:23;8.27;;;7.47;;
7683;SDS011;3884;48.616;12.872;2023-06-26T06:47:50;8.80;;;7.90;;
7683;SDS011;3884;48.616;12.872;2023-06-26T06:50:18;8.57;;;7.77;;
7683;SDS011;3884;48.616;12.872;2023-06-26T06:52:45;8.47;;;7.57;;
7683;SDS011;3884;48.616;12.872;2023-06-26T06:55:11;8.83;;;7.93;;
7683;SDS011;3884;48.616;12.872;2023-06-26T06:57:38;9.20;;;7.87;;
7683;SDS011;3884;48.616;12.872;2023-06-26T07:00:06;9.50;;;7.73;;
7683;SDS011;3884;48.616;12.872;2023-06-26T07:02:35;9.23;;;8.23;;
7683;SDS011;3884;48.616;12.872;2023-06-26T07:05:01;8.90;;;8.10;;
7683;SDS011;3884;48.616;12.872;2023-06-26T07:07:31;10.50;;;8.70;;
7683;SDS011;3884;48.616;12.872;2023-06-26T07:09:59;9.13;;;8.33;;
7683;SDS011;3884;48.616;12.872;2023-06-26T07:12:27;10.20;;;8.27;;
7683;SDS011;3884;48.616;12.872;2023-06-26T07:14:54;10.03;;;9.03;;
7683;SDS011;3884;48.616;12.872;2023-06-26T07:17:21;9.23;;;8.27;;
7683;SDS011;3884;48.616;12.872;2023-06-26T07:19:48;9.80;;;8.70;;
7683;SDS011;3884;48.616;12.872;2023-06-26T07:22:16;8.80;;;8.00;;
7683;SDS011;3884;48.616;12.872;2023-06-26T07:24:46;9.43;;;8.40;;
7683;SDS011;3884;48.616;12.872;2023-06-26T07:27:13;10.70;;;8.13;;
7683;SDS011;3884;48.616;12.872;2023-06-26T07:29:40;9.47;;;8.57;;
7683;SDS011;3884;48.616;12.872;2023-06-26T07:32:07;9.47;;;8.47;;
7683;SDS011;3884;48.616;12.872;2023-06-26T07:34:34;9.17;;;8.27;;
7683;SDS011;3884;48.616;12.872;2023-06-26T07:37:01;9.80;;;8.80;;
7683;SDS011;3884;48.616;12.872;2023-06-26T07:39:28;8.93;;;8.03;;
7683;SDS011;3884;48.616;12.872;2023-06-26T07:41:57;8.53;;;7.73;;
7683;SDS011;3884;48.616;12.872;2023-06-26T07:44:24;8.77;;;7.97;;
7683;SDS011;3884;48.616;12.872;2023-06-26T07:46:51;9.90;;;8.50;;
7683;SDS011;3884;48.616;12.872;2023-06-26T07:49:19;9.60;;;8.67;;
7683;SDS011;3884;48.616;12.872;2023-06-26T07:51:46;13.00;;;8.43;;
7683;SDS011;3884;48.616;12.872;2023-06-26T07:54:12;9.57;;;8.23;;
7683;SDS011;3884;48.616;12.872;2023-06-26T07:56:51;9.50;;;8.50;;
7683;SDS011;3884;48.616;12.872;2023-06-26T07:59:21;9.60;;;8.70;;
7683;SDS011;3884;48.616;12.872;2023-06-26T08:01:49;9.93;;;8.40;;
7683;SDS011;3884;48.616;12.872;2023-06-26T08:04:17;8.70;;;7.90;;
7683;SDS011;3884;48.616;12.872;2023-06-26T08:06:44;8.60;;;7.77;;
7683;SDS011;3884;48.616;12.872;2023-06-26T08:09:11;9.60;;;8.50;;
7683;SDS011;3884;48.616;12.872;2023-06-26T08:11:37;8.60;;;7.80;;
7683;SDS011;3884;48.616;12.872;2023-06-26T08:14:12;10.33;;;9.07;;
7683;SDS011;3884;48.616;12.872;2023-06-26T08:16:43;10.23;;;8.47;;
7683;SDS011;3884;48.616;12.872;2023-06-26T08:19:11;8.37;;;7.47;;
7683;SDS011;3884;48.616;12.872;2023-06-26T08:21:40;9.73;;;8.83;;
7683;SDS011;3884;48.616;12.872;2023-06-26T08:24:08;8.30;;;7.50;;
7683;SDS011;3884;48.616;12.872;2023-06-26T08:26:35;8.70;;;7.70;;
7683;SDS011;3884;48.616;12.872;2023-06-26T08:29:04;8.97;;;8.07;;
7683;SDS011;3884;48.616;12.872;2023-06-26T08:31:33;9.00;;;7.17;;
7683;SDS011;3884;48.616;12.872;2023-06-26T08:34:02;8.93;;;8.00;;
7683;SDS011;3884;48.616;12.872;2023-06-26T08:36:29;10.70;;;7.90;;
7683;SDS011;3884;48.616;12.872;2023-06-26T08:38:56;8.43;;;7.63;;
7683;SDS011;3884;48.616;12.872;2023-06-26T08:41:23;7.83;;;7.03;;
7683;SDS011;3884;48.616;12.872;2023-06-26T08:43:50;8.93;;;8.03;;
7683;SDS011;3884;48.616;12.872;2023-06-26T08:46:17;8.93;;;8.13;;
7683;SDS011;3884;48.616;12.872;2023-06-26T08:48:48;8.30;;;7.47;;
7683;SDS011;3884;48.616;12.872;2023-06-26T08:51:20;7.90;;;7.13;;
7683;SDS011;3884;48.616;12.872;2023-06-26T08:53:52;7.77;;;6.97;;
7683;SDS011;3884;48.616;12.872;2023-06-26T08:56:23;8.70;;;7.90;;
7683;SDS011;3884;48.616;12.872;2023-06-26T08:58:53;8.70;;;7.90;;
7683;SDS011;3884;48.616;12.872;2023-06-26T09:01:20;8.50;;;7.63;;
7683;SDS011;3884;48.616;12.872;2023-06-26T09:03:48;7.53;;;6.83;;
7683;SDS011;3884;48.616;12.872;2023-06-26T09:06:15;7.83;;;7.07;;
7683;SDS011;3884;48.616;12.872;2023-06-26T09:08:44;7.50;;;6.80;;
7683;SDS011;3884;48.616;12.872;2023-06-26T09:11:11;7.67;;;7.03;;
7683;SDS011;3884;48.616;12.872;2023-06-26T09:13:39;7.53;;;6.83;;
7683;SDS011;3884;48.616;12.872;2023-06-26T09:16:06;7.50;;;6.90;;
7683;SDS011;3884;48.616;12.872;2023-06-26T09:18:34;8.67;;;7.00;;
7683;SDS011;3884;48.616;12.872;2023-06-26T09:21:04;8.13;;;7.33;;
7683;SDS011;3884;48.616;12.872;2023-06-26T09:23:32;7.70;;;6.97;;
7683;SDS011;3884;48.616;12.872;2023-06-26T09:26:03;7.53;;;6.83;;
7683;SDS011;3884;48.616;12.872;2023-06-26T09:28:31;7.40;;;6.70;;
7683;SDS011;3884;48.616;12.872;2023-06-26T09:31:02;7.10;;;6.40;;
7683;SDS011;3884;48.616;12.872;2023-06-26T09:33:33;9.07;;;6.43;;
7683;SDS011;3884;48.616;12.872;2023-06-26T09:36:02;7.40;;;6.60;;
7683;SDS011;3884;48.616;12.872;2023-06-26T09:38:31;7.63;;;6.93;;
7683;SDS011;3884;48.616;12.872;2023-06-26T09:40:59;8.23;;;6.67;;
7683;SDS011;3884;48.616;12.872;2023-06-26T09:43:28;7.37;;;6.43;;
7683;SDS011;3884;48.616;12.872;2023-06-26T09:45:57;6.90;;;6.30;;
7683;SDS011;3884;48.616;12.872;2023-06-26T09:48:24;7.50;;;6.80;;
7683;SDS011;3884;48.616;12.872;2023-06-26T09:50:51;7.50;;;6.40;;
7683;SDS011;3884;48.616;12.872;2023-06-26T09:53:19;6.83;;;5.90;;
7683;SDS011;3884;48.616;12.872;2023-06-26T09:55:46;7.53;;;6.83;;
7683;SDS011;3884;48.616;12.872;2023-06-26T09:58:14;7.33;;;6.63;;
7683;SDS011;3884;48.616;12.872;2023-06-26T10:00:44;9.17;;;6.77;;
7683;SDS011;3884;48.616;12.872;2023-06-26T10:03:11;6.47;;;5.97;;
7683;SDS011;3884;48.616;12.872;2023-06-26T10:05:38;7.40;;;6.70;;
7683;SDS011;3884;48.616;12.872;2023-06-26T10:08:05;7.27;;;6.43;;
7683;SDS011;3884;48.616;12.872;2023-06-26T10:10:33;7.03;;;6.43;;
7683;SDS011;3884;48.616;12.872;2023-06-26T10:13:04;7.47;;;6.70;;
7683;SDS011;3884;48.616;12.872;2023-06-26T10:15:39;7.03;;;6.37;;
7683;SDS011;3884;48.616;12.872;2023-06-26T10:18:14;9.60;;;6.40;;
7683;SDS011;3884;48.616;12.872;2023-06-26T10:20:43;7.40;;;6.20;;
7683;SDS011;3884;48.616;12.872;2023-06-26T10:23:13;6.73;;;6.03;;
7683;SDS011;3884;48.616;12.872;2023-06-26T10:25:41;7.00;;;6.30;;
7683;SDS011;3884;48.616;12.872;2023-06-26T10:28:10;6.43;;;5.77;;
7683;SDS011;3884;48.616;12.872;2023-06-26T10:30:38;6.77;;;6.07;;
7683;SDS011;3884;48.616;12.872;2023-06-26T10:33:05;6.17;;;5.67;;
7683;SDS011;3884;48.616;12.872;2023-06-26T10:35:40;6.73;;;6.03;;
7683;SDS011;3884;48.616;12.872;2023-06-26T10:38:08;6.90;;;6.20;;
7683;SDS011;3884;48.616;12.872;2023-06-26T10:40:42;6.77;;;6.17;;
7683;SDS011;3884;48.616;12.872;2023-06-26T10:43:10;8.43;;;6.00;;
7683;SDS011;3884;48.616;12.872;2023-06-26T10:45:43;6.70;;;6.10;;
7683;SDS011;3884;48.616;12.872;2023-06-26T10:48:12;6.97;;;6.37;;
7683;SDS011;3884;48.616;12.872;2023-06-26T10:50:42;6.83;;;6.20;;
7683;SDS011;3884;48.616;12.872;2023-06-26T10:53:14;6.97;;;6.27;;
7683;SDS011;3884;48.616;12.872;2023-06-26T10:55:47;6.30;;;5.70;;
7683;SDS011;3884;48.616;12.872;2023-06-26T10:58:26;6.70;;;6.10;;
7683;SDS011;3884;48.616;12.872;2023-06-26T11:03:44;6.10;;;5.50;;
7683;SDS011;3884;48.616;12.872;2023-06-26T11:06:16;6.97;;;5.57;;
7683;SDS011;3884;48.616;12.872;2023-06-26T11:08:44;6.80;;;6.10;;
7683;SDS011;3884;48.616;12.872;2023-06-26T11:11:12;6.90;;;6.20;;
7683;SDS011;3884;48.616;12.872;2023-06-26T11:13:39;6.80;;;6.10;;
7683;SDS011;3884;48.616;12.872;2023-06-26T11:16:06;6.63;;;6.00;;
7683;SDS011;3884;48.616;12.872;2023-06-26T11:18:33;7.63;;;6.10;;
7683;SDS011;3884;48.616;12.872;2023-06-26T11:21:06;7.20;;;6.50;;
7683;SDS011;3884;48.616;12.872;2023-06-26T11:23:35;6.80;;;6.20;;
7683;SDS011;3884;48.616;12.872;2023-06-26T11:26:15;6.50;;;5.90;;
7683;SDS011;3884;48.616;12.872;2023-06-26T11:28:47;7.30;;;6.50;;
7683;SDS011;3884;48.616;12.872;2023-06-26T11:31:24;6.80;;;6.10;;
7683;SDS011;3884;48.616;12.872;2023-06-26T11:33:52;6.30;;;5.70;;
7683;SDS011;3884;48.616;12.872;2023-06-26T11:36:22;6.73;;;6.00;;
7683;SDS011;3884;48.616;12.872;2023-06-26T11:38:55;6.47;;;5.87;;
7683;SDS011;3884;48.616;12.872;2023-06-26T11:41:26;6.77;;;6.17;;
7683;SDS011;3884;48.616;12.872;2023-06-26T11:43:54;7.53;;;6.30;;
7683;SDS011;3884;48.616;12.872;2023-06-26T11:46:22;7.00;;;6.30;;
7683;SDS011;3884;48.616;12.872;2023-06-26T11:48:49;7.23;;;6.53;;
7683;SDS011;3884;48.616;12.872;2023-06-26T11:51:17;7.10;;;6.40;;
7683;SDS011;3884;48.616;12.872;2023-06-26T11:53:45;7.20;;;6.60;;
7683;SDS011;3884;48.616;12.872;2023-06-26T11:56:15;7.33;;;6.63;;
7683;SDS011;3884;48.616;12.872;2023-06-26T11:58:55;7.50;;;6.30;;
7683;SDS011;3884;48.616;12.872;2023-06-26T12:01:23;6.47;;;5.87;;
7683;SDS011;3884;48.616;12.872;2023-06-26T12:03:53;8.57;;;6.83;;
7683;SDS011;3884;48.616;12.872;2023-06-26T12:06:26;6.70;;;6.20;;
7683;SDS011;3884;48.616;12.872;2023-06-26T12:08:53;6.90;;;6.20;;
7683;SDS011;3884;48.616;12.872;2023-06-26T12:11:22;6.83;;;6.23;;
7683;SDS011;3884;48.616;12.872;2023-06-26T12:13:50;6.73;;;6.13;;
7683;SDS011;3884;48.616;12.872;2023-06-26T12:16:18;6.87;;;6.27;;
7683;SDS011;3884;48.616;12.872;2023-06-26T12:18:45;6.70;;;6.10;;
7683;SDS011;3884;48.616;12.872;2023-06-26T12:23:57;7.23;;;6.53;;
7683;SDS011;3884;48.616;12.872;2023-06-26T12:26:26;7.93;;;6.17;;
7683;SDS011;3884;48.616;12.872;2023-06-26T12:28:54;6.27;;;5.70;;
7683;SDS011;3884;48.616;12.872;2023-06-26T12:31:28;8.83;;;6.03;;
7683;SDS011;3884;48.616;12.872;2023-06-26T12:33:54;8.47;;;6.37;;
7683;SDS011;3884;48.616;12.872;2023-06-26T12:36:21;8.80;;;6.50;;
7683;SDS011;3884;48.616;12.872;2023-06-26T12:38:48;6.93;;;6.33;;
7683;SDS011;3884;48.616;12.872;2023-06-26T12:41:15;6.90;;;6.13;;
7683;SDS011;3884;48.616;12.872;2023-06-26T12:43:44;8.53;;;6.20;;
7683;SDS011;3884;48.616;12.872;2023-06-26T12:46:13;6.30;;;5.70;;
7683;SDS011;3884;48.616;12.872;2023-06-26T12:48:40;6.60;;;6.00;;
7683;SDS011;3884;48.616;12.872;2023-06-26T12:51:11;6.33;;;5.73;;
7683;SDS011;3884;48.616;12.872;2023-06-26T12:53:40;7.63;;;5.97;;
7683;SDS011;3884;48.616;12.872;2023-06-26T12:56:08;6.87;;;6.20;;
7683;SDS011;3884;48.616;12.872;2023-06-26T12:58:36;7.37;;;6.20;;
7683;SDS011;3884;48.616;12.872;2023-06-26T13:01:08;7.03;;;6.37;;
7683;SDS011;3884;48.616;12.872;2023-06-26T13:03:39;6.87;;;6.20;;
7683;SDS011;3884;48.616;12.872;2023-06-26T13:06:06;6.13;;;5.63;;
7683;SDS011;3884;48.616;12.872;2023-06-26T13:08:33;6.40;;;5.40;;
7683;SDS011;3884;48.616;12.872;2023-06-26T13:11:04;6.33;;;5.73;;
7683;SDS011;3884;48.616;12.872;2023-06-26T13:13:31;6.50;;;5.90;;
7683;SDS011;3884;48.616;12.872;2023-06-26T13:15:58;5.47;;;4.97;;
7683;SDS011;3884;48.616;12.872;2023-06-26T13:18:26;4.93;;;4.53;;
7683;SDS011;3884;48.616;12.872;2023-06-26T13:20:53;5.20;;;4.70;;
7683;SDS011;3884;48.616;12.872;2023-06-26T13:23:20;4.83;;;4.30;;
7683;SDS011;3884;48.616;12.872;2023-06-26T13:25:47;5.60;;;5.00;;
7683;SDS011;3884;48.616;12.872;2023-06-26T13:28:15;5.53;;;5.03;;
7683;SDS011;3884;48.616;12.872;2023-06-26T13:30:43;5.70;;;4.83;;
7683;SDS011;3884;48.616;12.872;2023-06-26T13:33:10;5.13;;;4.63;;
7683;SDS011;3884;48.616;12.872;2023-06-26T13:35:38;5.40;;;4.90;;
7683;SDS011;3884;48.616;12.872;2023-06-26T13:38:05;5.03;;;4.60;;
7683;SDS011;3884;48.616;12.872;2023-06-26T13:40:32;5.30;;;4.80;;
7683;SDS011;3884;48.616;12.872;2023-06-26T13:42:59;5.70;;;4.90;;
7683;SDS011;3884;48.616;12.872;2023-06-26T13:45:26;4.97;;;4.57;;
7683;SDS011;3884;48.616;12.872;2023-06-26T13:47:52;5.40;;;4.90;;
7683;SDS011;3884;48.616;12.872;2023-06-26T13:50:19;4.93;;;4.53;;
7683;SDS011;3884;48.616;12.872;2023-06-26T13:52:48;5.13;;;4.27;;
7683;SDS011;3884;48.616;12.872;2023-06-26T13:55:15;5.10;;;4.40;;
7683;SDS011;3884;48.616;12.872;2023-06-26T13:57:41;5.50;;;5.00;;
7683;SDS011;3884;48.616;12.872;2023-06-26T14:00:09;8.37;;;4.77;;
7683;SDS011;3884;48.616;12.872;2023-06-26T14:02:41;7.23;;;5.60;;
7683;SDS011;3884;48.616;12.872;2023-06-26T14:05:08;5.43;;;4.93;;
7683;SDS011;3884;48.616;12.872;2023-06-26T14:07:36;5.80;;;4.77;;
7683;SDS011;3884;48.616;12.872;2023-06-26T14:10:05;5.57;;;4.60;;
7683;SDS011;3884;48.616;12.872;2023-06-26T14:12:32;5.63;;;4.93;;
7683;SDS011;3884;48.616;12.872;2023-06-26T14:15:00;5.57;;;4.50;;
7683;SDS011;3884;48.616;12.872;2023-06-26T14:17:28;5.30;;;4.73;;
7683;SDS011;3884;48.616;12.872;2023-06-26T14:19:55;6.23;;;4.70;;
7683;SDS011;3884;48.616;12.872;2023-06-26T14:22:22;5.70;;;4.80;;
7683;SDS011;3884;48.616;12.872;2023-06-26T14:24:49;5.53;;;5.03;;
7683;SDS011;3884;48.616;12.872;2023-06-26T14:27:17;5.30;;;4.90;;
7683;SDS011;3884;48.616;12.872;2023-06-26T14:29:44;5.97;;;4.93;;
7683;SDS011;3884;48.616;12.872;2023-06-26T14:32:11;5.87;;;4.83;;
7683;SDS011;3884;48.616;12.872;2023-06-26T14:34:39;5.53;;;4.90;;
7683;SDS011;3884;48.616;12.872;2023-06-26T14:37:06;5.40;;;4.90;;
7683;SDS011;3884;48.616;12.872;2023-06-26T14:39:32;6.10;;;5.47;;
7683;SDS011;3884;48.616;12.872;2023-06-26T14:41:59;5.80;;;5.20;;
7683;SDS011;3884;48.616;12.872;2023-06-26T14:44:27;6.60;;;5.33;;
7683;SDS011;3884;48.616;12.872;2023-06-26T14:46:54;5.70;;;5.20;;
7683;SDS011;3884;48.616;12.872;2023-06-26T14:49:21;5.90;;;5.40;;
7683;SDS011;3884;48.616;12.872;2023-06-26T14:51:48;6.00;;;5.40;;
7683;SDS011;3884;48.616;12.872;2023-06-26T14:54:15;6.77;;;5.10;;
7683;SDS011;3884;48.616;12.872;2023-06-26T14:56:42;6.30;;;5.70;;
7683;SDS011;3884;48.616;12.872;2023-06-26T14:59:12;6.53;;;5.63;;
7683;SDS011;3884;48.616;12.872;2023-06-26T15:01:40;6.70;;;5.37;;
7683;SDS011;3884;48.616;12.872;2023-06-26T15:04:07;7.50;;;6.57;;